Weather reports worldwide

Advertisment
Venezia Lido, Italy (16101): temperature & dewpoint: 15.06.2018 23:00:00 - 21.06.2018 23:00:00 (CEST)Venezia Lido, Italy (16101): wind speed: 15.06.2018 23:00:00 - 21.06.2018 23:00:00 (CEST)Venezia Lido, Italy (16101): wind direction: 15.06.2018 23:00:00 - 21.06.2018 23:00:00 (CEST)Venezia Lido, Italy (16101): reduced air pressure: 15.06.2018 23:00:00 - 21.06.2018 23:00:00 (CEST)Venezia Lido, Italy (16101): precipitation: 15.06.2018 23:00:00 - 21.06.2018 23:00:00 (CEST)
Date & Time tt [°C] td [°C] ff [km/h] ff [kn] dd ppp [hPa] rr [mm]
21.06.2018 23:00:00 - - - - - - -
21.06.2018 22:00:00 26,2 21,6 18 10 SW 1012,1 -
21.06.2018 21:00:00 26,4 22,2 11 6 SSW 1011,8 -
21.06.2018 20:00:00 26,6 21,7 11 6 SSW 1011,1 0,0
21.06.2018 19:00:00 27,0 21,7 13 7 SSW 1011,9 -
21.06.2018 18:00:00 28,3 20,3 15 8 SSW 1012,1 -
21.06.2018 17:00:00 28,5 20,5 15 8 SSW 1012,6 -
21.06.2018 16:00:00 29,0 20,1 15 8 SSW 1013,3 -
21.06.2018 15:00:00 28,7 21,9 15 8 S 1014,2 -
21.06.2018 14:00:00 28,8 19,7 15 8 SSW 1014,8 0,0
21.06.2018 13:00:00 28,2 21,2 13 7 S 1015,3 -
21.06.2018 12:00:00 28,8 18,8 11 6 SSW 1015,8 -
21.06.2018 11:00:00 28,6 18,3 5 3 WNW 1016,0 -
21.06.2018 10:00:00 27,3 18,3 5 3 W 1016,3 -
21.06.2018 09:00:00 25,7 19,3 5 3 N 1016,4 -
21.06.2018 08:00:00 24,7 19,0 4 2 N 1016,4 0,0
21.06.2018 07:00:00 23,6 18,0 4 2 NW 1016,6 -
21.06.2018 06:00:00 23,2 17,8 5 3 WNW 1016,6 -
21.06.2018 05:00:00 23,9 18,3 8 4 W 1016,7 -
21.06.2018 04:00:00 24,1 17,8 5 3 W 1017,1 -
21.06.2018 03:00:00 24,6 17,0 5 3 W 1017,5 -
21.06.2018 02:00:00 25,5 19,8 5 3 WNW 1017,6 0,0
21.06.2018 01:00:00 25,6 19,7 5 3 W 1018,0 -
21.06.2018 00:00:00 25,9 20,4 8 4 W 1018,6 -
20.06.2018 23:00:00 24,2 18,1 4 2 WSW 1018,8 -
20.06.2018 22:00:00 24,5 17,9 4 2 SW 1018,6 -
20.06.2018 21:00:00 26,4 18,5 5 3 WSW 1018,0 -
20.06.2018 20:00:00 28,5 15,7 4 2 WSW 1017,8 0,0
20.06.2018 19:00:00 28,6 16,1 8 4 SW 1018,0 -
20.06.2018 18:00:00 29,3 10,9 9 5 SW 1018,4 -
20.06.2018 17:00:00 28,8 14,2 11 6 SSW 1018,9 -
20.06.2018 16:00:00 29,1 15,2 11 6 SSW 1019,4 -
20.06.2018 15:00:00 28,2 16,1 11 6 S 1019,9 -
20.06.2018 14:00:00 28,4 16,6 13 7 SSE 1020,4 0,0
20.06.2018 13:00:00 28,5 16,0 15 8 SE 1020,9 -
20.06.2018 12:00:00 28,9 12,8 21 11 ESE 1021,1 -
20.06.2018 11:00:00 - - - - - - -
20.06.2018 10:00:00 27,9 15,5 21 11 E 1021,1 -
20.06.2018 09:00:00 25,5 16,6 15 8 E 1021,1 -
20.06.2018 08:00:00 24,9 17,0 16 9 E 1021,0 0,0
20.06.2018 07:00:00 23,9 17,1 15 8 E 1020,6 -
20.06.2018 06:00:00 22,9 17,1 13 7 E 1020,4 -
20.06.2018 05:00:00 23,0 16,9 11 6 E 1020,2 -
20.06.2018 04:00:00 24,3 18,2 15 8 E 1020,0 -
20.06.2018 03:00:00 22,2 17,3 5 3 E 1020,2 -
20.06.2018 02:00:00 23,0 18,5 4 2 ESE 1020,4 0,0
20.06.2018 01:00:00 22,7 17,8 2 1 SE 1020,3 -
20.06.2018 00:00:00 22,1 15,1 2 1 SE 1020,0 -
19.06.2018 23:00:00 22,6 14,4 2 1 W 1019,7 -
19.06.2018 22:00:00 23,7 13,8 0 0 N 1019,1 -
19.06.2018 21:00:00 26,5 12,5 0 0 N 1018,4 -
19.06.2018 20:00:00 30,3 11,3 2 1 NNW 1018,1 0,0
19.06.2018 19:00:00 29,5 13,2 5 3 W 1018,1 -
19.06.2018 18:00:00 29,8 10,9 5 3 WSW 1018,4 -
19.06.2018 17:00:00 29,2 9,4 9 5 SSW 1018,9 -
19.06.2018 16:00:00 28,8 12,7 11 6 SSW 1019,5 -
19.06.2018 15:00:00 28,6 12,5 11 6 SSW 1019,7 -
19.06.2018 14:00:00 27,8 11,4 9 5 S 1020,1 0,0
19.06.2018 13:00:00 27,7 10,0 8 4 S 1020,2 -
19.06.2018 12:00:00 27,6 12,4 9 5 SSE 1020,4 -
19.06.2018 11:00:00 27,6 14,5 5 3 ESE 1020,6 -
19.06.2018 10:00:00 26,3 16,5 8 4 ENE 1020,6 -
19.06.2018 09:00:00 23,9 16,6 5 3 ENE 1020,4 -
19.06.2018 08:00:00 24,3 17,9 11 6 E 1019,8 0,0
19.06.2018 07:00:00 23,3 19,2 5 3 E 1019,4 -
19.06.2018 06:00:00 21,4 17,5 5 3 ENE 1019,2 -
19.06.2018 05:00:00 21,6 17,1 5 3 E 1018,7 -
19.06.2018 04:00:00 22,3 17,4 5 3 ENE 1018,6 -
19.06.2018 03:00:00 22,9 17,3 5 3 NE 1018,6 -
19.06.2018 02:00:00 23,5 17,9 5 3 ENE 1018,4 0,0
19.06.2018 01:00:00 24,4 20,0 2 1 SE 1018,3 -
19.06.2018 00:00:00 24,6 20,0 5 3 SE 1018,2 -
18.06.2018 23:00:00 23,5 19,4 9 5 ESE 1017,8 -
18.06.2018 22:00:00 24,9 16,0 15 8 E 1017,3 -
18.06.2018 21:00:00 27,2 13,8 2 1 NNE 1016,0 -
18.06.2018 20:00:00 28,8 12,7 8 4 SW 1015,1 -
18.06.2018 19:00:00 30,0 9,5 5 3 W 1015,2 -
18.06.2018 18:00:00 29,7 15,4 5 3 W 1015,2 -
18.06.2018 17:00:00 30,0 13,7 9 5 W 1015,3 -
18.06.2018 16:00:00 30,0 13,7 8 4 SW 1015,6 -
18.06.2018 15:00:00 29,9 11,9 4 2 NNE 1016,0 -
18.06.2018 14:00:00 28,1 16,0 4 2 NW 1016,2 -
18.06.2018 13:00:00 26,6 18,1 8 4 N 1016,5 -
18.06.2018 12:00:00 23,7 17,1 9 5 N 1016,6 -
18.06.2018 11:00:00 22,9 17,3 5 3 N 1016,4 -
18.06.2018 10:00:00 23,0 16,2 9 5 N 1017,0 -
18.06.2018 09:00:00 22,4 15,7 8 4 N 1016,8 -
18.06.2018 08:00:00 22,9 16,1 8 4 N 1016,1 0,0
18.06.2018 07:00:00 21,5 16,6 5 3 NE 1015,6 -
18.06.2018 06:00:00 21,0 16,7 8 4 NNE 1014,9 -
18.06.2018 05:00:00 21,9 18,2 5 3 NNE 1014,2 -
18.06.2018 04:00:00 22,3 17,6 8 4 ENE 1014,1 -
18.06.2018 03:00:00 22,9 17,5 5 3 ENE 1014,3 -
18.06.2018 02:00:00 22,6 17,4 5 3 NE 1014,5 0,0
18.06.2018 01:00:00 22,0 16,9 4 2 NNE 1014,6 -
18.06.2018 00:00:00 21,8 15,6 0 0 N 1014,4 -
17.06.2018 23:00:00 23,1 15,3 2 1 WSW 1014,1 -
17.06.2018 22:00:00 25,4 16,7 4 2 SSW 1013,8 -
17.06.2018 21:00:00 26,2 15,8 5 3 SW 1013,0 -
17.06.2018 20:00:00 27,4 14,7 8 4 SSW 1012,6 0,0
17.06.2018 19:00:00 28,0 14,6 9 5 SW 1012,4 -
17.06.2018 18:00:00 28,8 13,0 9 5 SW 1012,6 -
17.06.2018 17:00:00 27,9 17,1 13 7 SSW 1012,9 -
17.06.2018 16:00:00 28,3 16,8 13 7 S 1013,3 -
17.06.2018 15:00:00 28,2 14,4 15 8 SSW 1013,7 -
17.06.2018 14:00:00 29,6 19,0 11 6 SW 1013,9 0,0
17.06.2018 13:00:00 28,6 17,7 9 5 SSE 1014,0 -
17.06.2018 12:00:00 26,2 18,0 9 5 SSW 1014,0 -
17.06.2018 11:00:00 26,3 17,0 9 5 S 1014,0 -
17.06.2018 10:00:00 26,0 15,9 4 2 NNE 1014,0 -
17.06.2018 09:00:00 24,0 15,9 4 2 N 1013,8 -
17.06.2018 08:00:00 22,7 15,9 4 2 NNE 1013,6 0,0
17.06.2018 07:00:00 21,3 15,5 5 3 ENE 1013,2 -
17.06.2018 06:00:00 20,6 16,1 5 3 NE 1013,2 -
17.06.2018 05:00:00 20,7 16,2 5 3 NNE 1013,1 -
17.06.2018 04:00:00 21,6 16,7 4 2 NNE 1013,1 -
17.06.2018 03:00:00 22,2 16,2 9 5 E 1013,1 -
17.06.2018 02:00:00 23,3 16,8 13 7 ESE 1013,1 0,0
17.06.2018 01:00:00 22,9 16,4 9 5 ESE 1013,2 -
17.06.2018 00:00:00 23,1 17,3 2 1 E 1013,0 -
16.06.2018 23:00:00 21,5 13,8 0 0 N 1012,6 -
16.06.2018 22:00:00 23,1 14,0 2 1 WNW 1012,1 -
16.06.2018 21:00:00 25,5 14,5 2 1 W 1011,4 -
16.06.2018 20:00:00 27,6 12,0 4 2 W 1011,3 0,0
16.06.2018 19:00:00 28,1 10,3 5 3 W 1011,2 -
16.06.2018 18:00:00 27,8 10,5 8 4 SSW 1011,4 -
16.06.2018 17:00:00 27,6 11,2 9 5 SSW 1011,7 -
16.06.2018 16:00:00 27,7 10,4 11 6 SSW 1012,1 -
16.06.2018 15:00:00 27,8 10,9 11 6 SSW 1012,2 -
16.06.2018 14:00:00 28,6 8,8 11 6 E 1012,5 0,0
16.06.2018 13:00:00 28,0 8,3 13 7 E 1012,8 -
16.06.2018 12:00:00 27,3 8,7 11 6 E 1013,0 -
16.06.2018 11:00:00 26,2 11,5 9 5 NE 1013,0 -
16.06.2018 10:00:00 24,6 13,4 8 4 NE 1013,1 -
16.06.2018 09:00:00 23,0 15,5 8 4 NNE 1013,1 -
16.06.2018 08:00:00 22,3 16,3 5 3 ENE 1013,0 0,0
16.06.2018 07:00:00 20,4 16,6 5 3 NE 1013,1 -
16.06.2018 06:00:00 18,5 15,3 5 3 ENE 1013,0 -
16.06.2018 05:00:00 19,3 16,8 5 3 NE 1012,9 -
16.06.2018 04:00:00 18,5 14,1 4 2 ENE 1013,0 -
16.06.2018 03:00:00 18,9 14,1 2 1 ENE 1013,2 -
16.06.2018 02:00:00 20,3 13,7 2 1 E 1013,3 0,0
16.06.2018 01:00:00 22,2 14,5 5 3 SE 1013,3 -
16.06.2018 00:00:00 22,8 14,5 8 4 S 1013,0 -
15.06.2018 23:00:00 23,0 16,9 8 4 SSE 1012,6 -

tt = temperature
td = dewpoint
ff = wind speed
dd = wind direction
ppp = reduced air pressure
rr = precipitation

Next stations